sensor_id;sensor_type;location;lat;lon;timestamp;P1;durP1;ratioP1;P2;durP2;ratioP2
34920;SDS011;21128;50.016;20.002;2023-03-14T00:01:08;3.07;;;1.73;;
34920;SDS011;21128;50.016;20.002;2023-03-14T00:03:37;8.17;;;2.20;;
34920;SDS011;21128;50.016;20.002;2023-03-14T00:06:05;4.60;;;1.70;;
34920;SDS011;21128;50.016;20.002;2023-03-14T00:08:33;8.90;;;1.90;;
34920;SDS011;21128;50.016;20.002;2023-03-14T00:11:07;3.80;;;1.80;;
34920;SDS011;21128;50.016;20.002;2023-03-14T00:13:36;3.00;;;1.93;;
34920;SDS011;21128;50.016;20.002;2023-03-14T00:16:07;4.00;;;1.37;;
34920;SDS011;21128;50.016;20.002;2023-03-14T00:18:36;1.97;;;1.30;;
34920;SDS011;21128;50.016;20.002;2023-03-14T00:21:04;4.00;;;1.87;;
34920;SDS011;21128;50.016;20.002;2023-03-14T00:23:33;5.33;;;2.17;;
34920;SDS011;21128;50.016;20.002;2023-03-14T00:26:03;7.63;;;2.00;;
34920;SDS011;21128;50.016;20.002;2023-03-14T00:28:32;6.40;;;1.83;;
34920;SDS011;21128;50.016;20.002;2023-03-14T00:31:01;5.77;;;1.70;;
34920;SDS011;21128;50.016;20.002;2023-03-14T00:36:00;7.05;;;1.70;;
34920;SDS011;21128;50.016;20.002;2023-03-14T00:38:29;6.93;;;1.90;;
34920;SDS011;21128;50.016;20.002;2023-03-14T00:40:58;2.83;;;1.73;;
34920;SDS011;21128;50.016;20.002;2023-03-14T00:43:25;3.03;;;1.73;;
34920;SDS011;21128;50.016;20.002;2023-03-14T00:45:52;2.67;;;1.63;;
34920;SDS011;21128;50.016;20.002;2023-03-14T00:48:19;6.53;;;2.10;;
34920;SDS011;21128;50.016;20.002;2023-03-14T00:50:47;2.43;;;1.77;;
34920;SDS011;21128;50.016;20.002;2023-03-14T00:53:14;2.97;;;1.40;;
34920;SDS011;21128;50.016;20.002;2023-03-14T00:55:42;5.10;;;1.57;;
34920;SDS011;21128;50.016;20.002;2023-03-14T00:58:10;7.57;;;2.20;;
34920;SDS011;21128;50.016;20.002;2023-03-14T01:00:39;4.93;;;2.00;;
34920;SDS011;21128;50.016;20.002;2023-03-14T01:03:08;2.00;;;1.53;;
34920;SDS011;21128;50.016;20.002;2023-03-14T01:05:36;2.77;;;1.57;;
34920;SDS011;21128;50.016;20.002;2023-03-14T01:08:06;3.50;;;2.00;;
34920;SDS011;21128;50.016;20.002;2023-03-14T01:10:34;6.17;;;1.97;;
34920;SDS011;21128;50.016;20.002;2023-03-14T01:13:04;3.97;;;2.00;;
34920;SDS011;21128;50.016;20.002;2023-03-14T01:15:32;4.85;;;2.22;;
34920;SDS011;21128;50.016;20.002;2023-03-14T01:17:59;2.77;;;1.60;;
34920;SDS011;21128;50.016;20.002;2023-03-14T01:20:26;3.95;;;1.90;;
34920;SDS011;21128;50.016;20.002;2023-03-14T01:22:53;3.57;;;1.80;;
34920;SDS011;21128;50.016;20.002;2023-03-14T01:25:21;6.43;;;2.20;;
34920;SDS011;21128;50.016;20.002;2023-03-14T01:27:48;3.37;;;1.90;;
34920;SDS011;21128;50.016;20.002;2023-03-14T01:30:15;4.50;;;2.00;;
34920;SDS011;21128;50.016;20.002;2023-03-14T01:32:42;5.03;;;2.07;;
34920;SDS011;21128;50.016;20.002;2023-03-14T01:35:09;7.53;;;1.87;;
34920;SDS011;21128;50.016;20.002;2023-03-14T01:37:36;4.60;;;1.75;;
34920;SDS011;21128;50.016;20.002;2023-03-14T01:40:03;4.33;;;1.93;;
34920;SDS011;21128;50.016;20.002;2023-03-14T01:42:32;6.13;;;1.90;;
34920;SDS011;21128;50.016;20.002;2023-03-14T01:45:00;5.73;;;2.07;;
34920;SDS011;21128;50.016;20.002;2023-03-14T01:47:28;4.50;;;1.90;;
34920;SDS011;21128;50.016;20.002;2023-03-14T01:50:03;4.83;;;1.93;;
34920;SDS011;21128;50.016;20.002;2023-03-14T01:55:04;4.90;;;2.30;;
34920;SDS011;21128;50.016;20.002;2023-03-14T01:57:41;3.20;;;2.03;;
34920;SDS011;21128;50.016;20.002;2023-03-14T02:00:21;6.13;;;2.40;;
34920;SDS011;21128;50.016;20.002;2023-03-14T02:02:58;3.83;;;2.37;;
34920;SDS011;21128;50.016;20.002;2023-03-14T02:08:02;4.23;;;2.20;;
34920;SDS011;21128;50.016;20.002;2023-03-14T02:10:32;3.27;;;2.10;;
34920;SDS011;21128;50.016;20.002;2023-03-14T02:13:06;6.80;;;2.67;;
34920;SDS011;21128;50.016;20.002;2023-03-14T02:15:33;5.03;;;2.00;;
34920;SDS011;21128;50.016;20.002;2023-03-14T02:18:01;4.70;;;2.25;;
34920;SDS011;21128;50.016;20.002;2023-03-14T02:23:08;8.30;;;2.70;;
34920;SDS011;21128;50.016;20.002;2023-03-14T02:25:56;4.37;;;2.30;;
34920;SDS011;21128;50.016;20.002;2023-03-14T02:28:32;5.37;;;2.50;;
34920;SDS011;21128;50.016;20.002;2023-03-14T02:30:58;6.05;;;2.17;;
34920;SDS011;21128;50.016;20.002;2023-03-14T02:33:26;6.30;;;2.40;;
34920;SDS011;21128;50.016;20.002;2023-03-14T02:36:01;3.87;;;2.35;;
34920;SDS011;21128;50.016;20.002;2023-03-14T02:38:36;5.90;;;2.47;;
34920;SDS011;21128;50.016;20.002;2023-03-14T02:41:33;3.37;;;2.13;;
34920;SDS011;21128;50.016;20.002;2023-03-14T02:44:01;4.50;;;2.33;;
34920;SDS011;21128;50.016;20.002;2023-03-14T02:46:30;4.10;;;2.23;;
34920;SDS011;21128;50.016;20.002;2023-03-14T02:51:27;3.70;;;2.30;;
34920;SDS011;21128;50.016;20.002;2023-03-14T02:53:55;5.07;;;2.20;;
34920;SDS011;21128;50.016;20.002;2023-03-14T02:56:22;3.57;;;2.20;;
34920;SDS011;21128;50.016;20.002;2023-03-14T02:58:49;5.33;;;2.33;;
34920;SDS011;21128;50.016;20.002;2023-03-14T03:01:16;2.90;;;2.00;;
34920;SDS011;21128;50.016;20.002;2023-03-14T03:03:43;4.63;;;2.13;;
34920;SDS011;21128;50.016;20.002;2023-03-14T03:06:10;6.23;;;2.23;;
34920;SDS011;21128;50.016;20.002;2023-03-14T03:08:38;5.95;;;2.30;;
34920;SDS011;21128;50.016;20.002;2023-03-14T03:11:05;3.87;;;2.03;;
34920;SDS011;21128;50.016;20.002;2023-03-14T03:13:32;4.70;;;2.13;;
34920;SDS011;21128;50.016;20.002;2023-03-14T03:15:59;4.33;;;2.40;;
34920;SDS011;21128;50.016;20.002;2023-03-14T03:18:27;4.73;;;2.30;;
34920;SDS011;21128;50.016;20.002;2023-03-14T03:20:54;6.13;;;1.93;;
34920;SDS011;21128;50.016;20.002;2023-03-14T03:23:20;5.40;;;2.33;;
34920;SDS011;21128;50.016;20.002;2023-03-14T03:25:48;8.00;;;2.20;;
34920;SDS011;21128;50.016;20.002;2023-03-14T03:28:17;3.70;;;2.40;;
34920;SDS011;21128;50.016;20.002;2023-03-14T03:30:44;5.45;;;2.55;;
34920;SDS011;21128;50.016;20.002;2023-03-14T03:33:12;8.75;;;2.55;;
34920;SDS011;21128;50.016;20.002;2023-03-14T03:35:49;6.37;;;2.70;;
34920;SDS011;21128;50.016;20.002;2023-03-14T03:38:17;7.17;;;3.03;;
34920;SDS011;21128;50.016;20.002;2023-03-14T03:40:44;7.80;;;2.80;;
34920;SDS011;21128;50.016;20.002;2023-03-14T03:43:10;6.27;;;2.63;;
34920;SDS011;21128;50.016;20.002;2023-03-14T03:45:37;4.37;;;2.33;;
34920;SDS011;21128;50.016;20.002;2023-03-14T03:48:05;7.57;;;2.80;;
34920;SDS011;21128;50.016;20.002;2023-03-14T03:50:32;6.25;;;2.95;;
34920;SDS011;21128;50.016;20.002;2023-03-14T03:52:59;5.33;;;2.60;;
34920;SDS011;21128;50.016;20.002;2023-03-14T03:55:26;6.17;;;2.73;;
34920;SDS011;21128;50.016;20.002;2023-03-14T03:57:54;10.87;;;2.30;;
34920;SDS011;21128;50.016;20.002;2023-03-14T04:00:21;5.37;;;2.70;;
34920;SDS011;21128;50.016;20.002;2023-03-14T04:02:48;4.97;;;2.17;;
34920;SDS011;21128;50.016;20.002;2023-03-14T04:05:15;4.97;;;2.50;;
34920;SDS011;21128;50.016;20.002;2023-03-14T04:07:42;4.30;;;2.60;;
34920;SDS011;21128;50.016;20.002;2023-03-14T04:10:10;4.20;;;2.20;;
34920;SDS011;21128;50.016;20.002;2023-03-14T04:12:37;4.15;;;2.00;;
34920;SDS011;21128;50.016;20.002;2023-03-14T04:15:04;6.47;;;2.60;;
34920;SDS011;21128;50.016;20.002;2023-03-14T04:17:31;5.50;;;2.20;;
34920;SDS011;21128;50.016;20.002;2023-03-14T04:19:58;5.72;;;2.62;;
34920;SDS011;21128;50.016;20.002;2023-03-14T04:22:25;4.10;;;2.33;;
34920;SDS011;21128;50.016;20.002;2023-03-14T04:24:52;3.50;;;1.70;;
34920;SDS011;21128;50.016;20.002;2023-03-14T04:27:19;9.13;;;2.27;;
34920;SDS011;21128;50.016;20.002;2023-03-14T04:29:46;4.63;;;2.07;;
34920;SDS011;21128;50.016;20.002;2023-03-14T04:32:13;3.98;;;2.17;;
34920;SDS011;21128;50.016;20.002;2023-03-14T04:34:40;4.17;;;2.23;;
34920;SDS011;21128;50.016;20.002;2023-03-14T04:37:08;10.00;;;2.85;;
34920;SDS011;21128;50.016;20.002;2023-03-14T04:39:34;8.10;;;2.40;;
34920;SDS011;21128;50.016;20.002;2023-03-14T04:42:01;4.67;;;2.03;;
34920;SDS011;21128;50.016;20.002;2023-03-14T04:44:29;4.20;;;2.07;;
34920;SDS011;21128;50.016;20.002;2023-03-14T04:46:56;4.43;;;2.53;;
34920;SDS011;21128;50.016;20.002;2023-03-14T04:49:23;4.70;;;2.00;;
34920;SDS011;21128;50.016;20.002;2023-03-14T04:51:49;5.93;;;2.23;;
34920;SDS011;21128;50.016;20.002;2023-03-14T04:54:19;10.25;;;2.85;;
34920;SDS011;21128;50.016;20.002;2023-03-14T04:56:46;3.80;;;2.10;;
34920;SDS011;21128;50.016;20.002;2023-03-14T04:59:13;3.93;;;2.00;;
34920;SDS011;21128;50.016;20.002;2023-03-14T05:01:40;6.27;;;2.10;;
34920;SDS011;21128;50.016;20.002;2023-03-14T05:04:07;6.70;;;2.00;;
34920;SDS011;21128;50.016;20.002;2023-03-14T05:06:34;4.87;;;2.20;;
34920;SDS011;21128;50.016;20.002;2023-03-14T05:09:01;8.73;;;2.33;;
34920;SDS011;21128;50.016;20.002;2023-03-14T05:11:28;5.85;;;2.00;;
34920;SDS011;21128;50.016;20.002;2023-03-14T05:13:55;15.13;;;3.80;;
34920;SDS011;21128;50.016;20.002;2023-03-14T05:16:22;8.00;;;2.40;;
34920;SDS011;21128;50.016;20.002;2023-03-14T05:18:50;12.70;;;3.10;;
34920;SDS011;21128;50.016;20.002;2023-03-14T05:21:17;14.95;;;2.80;;
34920;SDS011;21128;50.016;20.002;2023-03-14T05:23:44;14.75;;;3.58;;
34920;SDS011;21128;50.016;20.002;2023-03-14T05:26:11;12.33;;;3.90;;
34920;SDS011;21128;50.016;20.002;2023-03-14T05:28:38;7.12;;;2.83;;
34920;SDS011;21128;50.016;20.002;2023-03-14T05:31:08;15.20;;;3.15;;
34920;SDS011;21128;50.016;20.002;2023-03-14T05:33:35;10.60;;;2.87;;
34920;SDS011;21128;50.016;20.002;2023-03-14T05:36:02;11.10;;;3.15;;
34920;SDS011;21128;50.016;20.002;2023-03-14T05:38:29;7.67;;;2.77;;
34920;SDS011;21128;50.016;20.002;2023-03-14T05:40:56;4.83;;;2.77;;
34920;SDS011;21128;50.016;20.002;2023-03-14T05:43:23;5.87;;;2.90;;
34920;SDS011;21128;50.016;20.002;2023-03-14T05:45:50;8.33;;;3.20;;
34920;SDS011;21128;50.016;20.002;2023-03-14T05:48:17;11.03;;;3.37;;
34920;SDS011;21128;50.016;20.002;2023-03-14T05:50:44;5.35;;;2.45;;
34920;SDS011;21128;50.016;20.002;2023-03-14T05:53:11;11.77;;;3.10;;
34920;SDS011;21128;50.016;20.002;2023-03-14T05:55:39;11.00;;;3.10;;
34920;SDS011;21128;50.016;20.002;2023-03-14T05:58:06;16.23;;;2.70;;
34920;SDS011;21128;50.016;20.002;2023-03-14T06:00:33;9.33;;;2.87;;
34920;SDS011;21128;50.016;20.002;2023-03-14T06:03:00;8.80;;;3.07;;
34920;SDS011;21128;50.016;20.002;2023-03-14T06:05:27;11.15;;;3.10;;
34920;SDS011;21128;50.016;20.002;2023-03-14T06:07:54;13.83;;;3.57;;
34920;SDS011;21128;50.016;20.002;2023-03-14T06:10:21;21.50;;;4.95;;
34920;SDS011;21128;50.016;20.002;2023-03-14T06:12:48;15.03;;;3.60;;
34920;SDS011;21128;50.016;20.002;2023-03-14T06:15:15;12.70;;;4.10;;
34920;SDS011;21128;50.016;20.002;2023-03-14T06:17:42;11.30;;;3.55;;
34920;SDS011;21128;50.016;20.002;2023-03-14T06:20:09;12.53;;;3.73;;
34920;SDS011;21128;50.016;20.002;2023-03-14T06:22:37;16.10;;;3.15;;
34920;SDS011;21128;50.016;20.002;2023-03-14T06:25:06;8.80;;;2.97;;
34920;SDS011;21128;50.016;20.002;2023-03-14T06:27:33;29.30;;;5.77;;
34920;SDS011;21128;50.016;20.002;2023-03-14T06:30:00;20.57;;;4.15;;
34920;SDS011;21128;50.016;20.002;2023-03-14T06:32:27;22.70;;;5.27;;
34920;SDS011;21128;50.016;20.002;2023-03-14T06:34:54;21.03;;;4.80;;
34920;SDS011;21128;50.016;20.002;2023-03-14T06:37:21;13.55;;;3.80;;
34920;SDS011;21128;50.016;20.002;2023-03-14T06:39:48;27.25;;;6.00;;
34920;SDS011;21128;50.016;20.002;2023-03-14T06:42:15;25.00;;;5.72;;
34920;SDS011;21128;50.016;20.002;2023-03-14T06:44:42;17.80;;;4.83;;
34920;SDS011;21128;50.016;20.002;2023-03-14T06:47:09;24.30;;;5.10;;
34920;SDS011;21128;50.016;20.002;2023-03-14T06:49:36;14.28;;;4.08;;
34920;SDS011;21128;50.016;20.002;2023-03-14T06:52:02;13.67;;;3.90;;
34920;SDS011;21128;50.016;20.002;2023-03-14T06:54:30;11.63;;;3.98;;
34920;SDS011;21128;50.016;20.002;2023-03-14T06:56:56;12.23;;;4.40;;
34920;SDS011;21128;50.016;20.002;2023-03-14T06:59:23;17.60;;;4.33;;
34920;SDS011;21128;50.016;20.002;2023-03-14T07:01:51;16.13;;;4.57;;
34920;SDS011;21128;50.016;20.002;2023-03-14T07:04:18;28.90;;;5.17;;
34920;SDS011;21128;50.016;20.002;2023-03-14T07:06:44;14.27;;;4.40;;
34920;SDS011;21128;50.016;20.002;2023-03-14T07:09:13;6.40;;;4.13;;
34920;SDS011;21128;50.016;20.002;2023-03-14T07:11:41;7.53;;;2.50;;
34920;SDS011;21128;50.016;20.002;2023-03-14T07:14:08;5.80;;;2.22;;
34920;SDS011;21128;50.016;20.002;2023-03-14T07:16:35;6.77;;;2.67;;
34920;SDS011;21128;50.016;20.002;2023-03-14T07:19:02;7.57;;;2.33;;
34920;SDS011;21128;50.016;20.002;2023-03-14T07:21:29;4.87;;;2.00;;
34920;SDS011;21128;50.016;20.002;2023-03-14T07:23:58;3.85;;;2.15;;
34920;SDS011;21128;50.016;20.002;2023-03-14T07:26:25;7.97;;;2.23;;
34920;SDS011;21128;50.016;20.002;2023-03-14T07:28:52;8.07;;;2.27;;
34920;SDS011;21128;50.016;20.002;2023-03-14T07:31:19;7.70;;;2.70;;
34920;SDS011;21128;50.016;20.002;2023-03-14T07:33:46;5.27;;;2.13;;
34920;SDS011;21128;50.016;20.002;2023-03-14T07:36:13;5.83;;;2.50;;
34920;SDS011;21128;50.016;20.002;2023-03-14T07:38:40;3.40;;;2.00;;
34920;SDS011;21128;50.016;20.002;2023-03-14T07:41:07;3.22;;;1.77;;
34920;SDS011;21128;50.016;20.002;2023-03-14T07:43:34;5.97;;;1.70;;
34920;SDS011;21128;50.016;20.002;2023-03-14T07:46:01;4.17;;;2.10;;
34920;SDS011;21128;50.016;20.002;2023-03-14T07:48:28;6.67;;;2.40;;
34920;SDS011;21128;50.016;20.002;2023-03-14T07:50:55;7.40;;;2.17;;
34920;SDS011;21128;50.016;20.002;2023-03-14T07:53:23;7.73;;;2.30;;
34920;SDS011;21128;50.016;20.002;2023-03-14T07:55:51;5.27;;;2.27;;
34920;SDS011;21128;50.016;20.002;2023-03-14T07:58:20;2.93;;;2.03;;
34920;SDS011;21128;50.016;20.002;2023-03-14T08:00:51;5.80;;;2.55;;
34920;SDS011;21128;50.016;20.002;2023-03-14T08:03:18;4.17;;;2.20;;
34920;SDS011;21128;50.016;20.002;2023-03-14T08:05:48;4.58;;;2.47;;
34920;SDS011;21128;50.016;20.002;2023-03-14T08:08:19;4.23;;;1.90;;
34920;SDS011;21128;50.016;20.002;2023-03-14T08:10:46;5.47;;;3.33;;
34920;SDS011;21128;50.016;20.002;2023-03-14T08:13:13;7.90;;;2.40;;
34920;SDS011;21128;50.016;20.002;2023-03-14T08:15:41;6.90;;;2.47;;
34920;SDS011;21128;50.016;20.002;2023-03-14T08:18:08;6.47;;;2.30;;
34920;SDS011;21128;50.016;20.002;2023-03-14T08:20:35;6.77;;;2.57;;
34920;SDS011;21128;50.016;20.002;2023-03-14T08:23:02;5.07;;;2.27;;
34920;SDS011;21128;50.016;20.002;2023-03-14T08:25:29;10.20;;;2.45;;
34920;SDS011;21128;50.016;20.002;2023-03-14T08:27:57;7.27;;;1.97;;
34920;SDS011;21128;50.016;20.002;2023-03-14T08:30:24;10.00;;;2.00;;
34920;SDS011;21128;50.016;20.002;2023-03-14T08:32:51;3.80;;;1.80;;
34920;SDS011;21128;50.016;20.002;2023-03-14T08:35:18;8.47;;;2.60;;
34920;SDS011;21128;50.016;20.002;2023-03-14T08:37:45;3.70;;;2.25;;
34920;SDS011;21128;50.016;20.002;2023-03-14T08:40:13;7.17;;;2.17;;
34920;SDS011;21128;50.016;20.002;2023-03-14T08:42:42;8.25;;;1.98;;
34920;SDS011;21128;50.016;20.002;2023-03-14T08:45:11;6.20;;;2.45;;
34920;SDS011;21128;50.016;20.002;2023-03-14T08:47:39;6.43;;;2.30;;
34920;SDS011;21128;50.016;20.002;2023-03-14T08:50:07;7.10;;;2.73;;
34920;SDS011;21128;50.016;20.002;2023-03-14T08:52:35;3.93;;;2.40;;
34920;SDS011;21128;50.016;20.002;2023-03-14T08:55:04;6.63;;;2.07;;
34920;SDS011;21128;50.016;20.002;2023-03-14T08:57:32;8.27;;;2.23;;
34920;SDS011;21128;50.016;20.002;2023-03-14T08:59:59;4.97;;;2.57;;
34920;SDS011;21128;50.016;20.002;2023-03-14T09:02:26;7.17;;;2.80;;
34920;SDS011;21128;50.016;20.002;2023-03-14T09:04:53;11.00;;;2.27;;
34920;SDS011;21128;50.016;20.002;2023-03-14T09:07:20;6.20;;;2.70;;
34920;SDS011;21128;50.016;20.002;2023-03-14T09:09:47;7.13;;;3.20;;
34920;SDS011;21128;50.016;20.002;2023-03-14T09:12:15;7.65;;;2.60;;
34920;SDS011;21128;50.016;20.002;2023-03-14T09:14:41;6.80;;;2.40;;
34920;SDS011;21128;50.016;20.002;2023-03-14T09:17:08;11.07;;;2.67;;
34920;SDS011;21128;50.016;20.002;2023-03-14T09:19:35;6.73;;;3.03;;
34920;SDS011;21128;50.016;20.002;2023-03-14T09:22:02;6.60;;;2.73;;
34920;SDS011;21128;50.016;20.002;2023-03-14T09:24:29;6.58;;;2.47;;
34920;SDS011;21128;50.016;20.002;2023-03-14T09:26:57;5.77;;;2.93;;
34920;SDS011;21128;50.016;20.002;2023-03-14T09:29:23;5.80;;;3.45;;
34920;SDS011;21128;50.016;20.002;2023-03-14T09:31:51;5.37;;;3.02;;
34920;SDS011;21128;50.016;20.002;2023-03-14T09:34:19;5.40;;;2.35;;
34920;SDS011;21128;50.016;20.002;2023-03-14T09:36:46;5.95;;;2.35;;
34920;SDS011;21128;50.016;20.002;2023-03-14T09:39:13;6.63;;;2.43;;
34920;SDS011;21128;50.016;20.002;2023-03-14T09:41:41;9.97;;;2.60;;
34920;SDS011;21128;50.016;20.002;2023-03-14T09:46:50;14.93;;;3.03;;
34920;SDS011;21128;50.016;20.002;2023-03-14T09:49:36;14.17;;;2.40;;
34920;SDS011;21128;50.016;20.002;2023-03-14T09:52:22;7.43;;;2.37;;
34920;SDS011;21128;50.016;20.002;2023-03-14T09:54:53;7.30;;;2.30;;
34920;SDS011;21128;50.016;20.002;2023-03-14T09:57:38;6.97;;;2.53;;
34920;SDS011;21128;50.016;20.002;2023-03-14T10:00:18;5.70;;;2.37;;
34920;SDS011;21128;50.016;20.002;2023-03-14T10:05:40;3.67;;;2.17;;
34920;SDS011;21128;50.016;20.002;2023-03-14T10:08:11;4.60;;;1.83;;
34920;SDS011;21128;50.016;20.002;2023-03-14T10:10:39;6.53;;;2.37;;
34920;SDS011;21128;50.016;20.002;2023-03-14T10:13:14;5.27;;;2.13;;
34920;SDS011;21128;50.016;20.002;2023-03-14T10:15:52;5.90;;;2.13;;
34920;SDS011;21128;50.016;20.002;2023-03-14T10:18:19;7.13;;;2.27;;
34920;SDS011;21128;50.016;20.002;2023-03-14T10:20:48;3.73;;;1.80;;
34920;SDS011;21128;50.016;20.002;2023-03-14T10:23:28;10.70;;;2.30;;
34920;SDS011;21128;50.016;20.002;2023-03-14T10:25:59;4.27;;;1.77;;
34920;SDS011;21128;50.016;20.002;2023-03-14T10:28:28;15.93;;;2.60;;
34920;SDS011;21128;50.016;20.002;2023-03-14T10:31:00;4.63;;;1.93;;
34920;SDS011;21128;50.016;20.002;2023-03-14T10:33:31;12.30;;;2.97;;
34920;SDS011;21128;50.016;20.002;2023-03-14T10:36:15;5.50;;;2.47;;
34920;SDS011;21128;50.016;20.002;2023-03-14T10:38:47;7.93;;;2.77;;
34920;SDS011;21128;50.016;20.002;2023-03-14T10:41:24;5.57;;;2.20;;
34920;SDS011;21128;50.016;20.002;2023-03-14T10:43:54;4.03;;;2.10;;
34920;SDS011;21128;50.016;20.002;2023-03-14T10:46:25;4.13;;;2.90;;
34920;SDS011;21128;50.016;20.002;2023-03-14T10:48:56;4.93;;;2.20;;
34920;SDS011;21128;50.016;20.002;2023-03-14T10:51:27;3.62;;;2.40;;
34920;SDS011;21128;50.016;20.002;2023-03-14T10:53:58;4.35;;;2.10;;
34920;SDS011;21128;50.016;20.002;2023-03-14T10:56:33;5.50;;;2.20;;
34920;SDS011;21128;50.016;20.002;2023-03-14T10:59:03;5.50;;;2.30;;
34920;SDS011;21128;50.016;20.002;2023-03-14T11:07:03;3.30;;;2.30;;
34920;SDS011;21128;50.016;20.002;2023-03-14T11:15:43;5.17;;;2.47;;
34920;SDS011;21128;50.016;20.002;2023-03-14T11:21:02;3.93;;;1.83;;
34920;SDS011;21128;50.016;20.002;2023-03-14T11:23:46;4.75;;;2.02;;
34920;SDS011;21128;50.016;20.002;2023-03-14T11:26:30;2.50;;;1.67;;
34920;SDS011;21128;50.016;20.002;2023-03-14T11:31:48;4.83;;;2.23;;
34920;SDS011;21128;50.016;20.002;2023-03-14T11:34:28;6.85;;;1.90;;
34920;SDS011;21128;50.016;20.002;2023-03-14T11:37:06;5.73;;;2.00;;
34920;SDS011;21128;50.016;20.002;2023-03-14T11:39:41;6.40;;;2.40;;
34920;SDS011;21128;50.016;20.002;2023-03-14T11:42:17;11.10;;;3.70;;
34920;SDS011;21128;50.016;20.002;2023-03-14T11:44:46;3.73;;;2.07;;
34920;SDS011;21128;50.016;20.002;2023-03-14T11:47:17;4.83;;;2.23;;
34920;SDS011;21128;50.016;20.002;2023-03-14T11:55:26;4.37;;;2.40;;
34920;SDS011;21128;50.016;20.002;2023-03-14T11:57:56;6.93;;;2.90;;
34920;SDS011;21128;50.016;20.002;2023-03-14T12:00:37;5.47;;;2.65;;
34920;SDS011;21128;50.016;20.002;2023-03-14T12:03:21;4.43;;;2.10;;
34920;SDS011;21128;50.016;20.002;2023-03-14T12:25:44;5.30;;;2.43;;
34920;SDS011;21128;50.016;20.002;2023-03-14T12:28:22;5.47;;;2.55;;
34920;SDS011;21128;50.016;20.002;2023-03-14T12:30:57;9.53;;;2.60;;
34920;SDS011;21128;50.016;20.002;2023-03-14T12:39:31;8.10;;;2.70;;
34920;SDS011;21128;50.016;20.002;2023-03-14T12:44:49;6.00;;;1.87;;
34920;SDS011;21128;50.016;20.002;2023-03-14T12:49:44;4.27;;;2.10;;
34920;SDS011;21128;50.016;20.002;2023-03-14T12:52:19;4.27;;;2.33;;
34920;SDS011;21128;50.016;20.002;2023-03-14T12:59:59;8.27;;;2.63;;
34920;SDS011;21128;50.016;20.002;2023-03-14T13:02:43;5.20;;;2.98;;
34920;SDS011;21128;50.016;20.002;2023-03-14T13:05:21;5.40;;;2.30;;
34920;SDS011;21128;50.016;20.002;2023-03-14T13:10:20;7.60;;;2.37;;
34920;SDS011;21128;50.016;20.002;2023-03-14T13:13:03;8.67;;;2.70;;
34920;SDS011;21128;50.016;20.002;2023-03-14T13:15:56;6.77;;;2.70;;
34920;SDS011;21128;50.016;20.002;2023-03-14T13:18:28;5.67;;;2.63;;
34920;SDS011;21128;50.016;20.002;2023-03-14T13:21:17;5.90;;;2.63;;
34920;SDS011;21128;50.016;20.002;2023-03-14T13:24:00;6.10;;;2.40;;
34920;SDS011;21128;50.016;20.002;2023-03-14T13:26:43;6.00;;;2.70;;
34920;SDS011;21128;50.016;20.002;2023-03-14T13:29:17;4.27;;;2.13;;
34920;SDS011;21128;50.016;20.002;2023-03-14T13:31:47;9.77;;;2.73;;
34920;SDS011;21128;50.016;20.002;2023-03-14T13:34:16;4.73;;;2.37;;
34920;SDS011;21128;50.016;20.002;2023-03-14T13:36:44;8.37;;;2.07;;
34920;SDS011;21128;50.016;20.002;2023-03-14T13:39:19;8.20;;;2.00;;
34920;SDS011;21128;50.016;20.002;2023-03-14T13:41:51;5.13;;;2.60;;
34920;SDS011;21128;50.016;20.002;2023-03-14T13:47:09;7.17;;;2.10;;
34920;SDS011;21128;50.016;20.002;2023-03-14T13:49:46;7.07;;;2.10;;
34920;SDS011;21128;50.016;20.002;2023-03-14T13:52:27;9.40;;;2.30;;
34920;SDS011;21128;50.016;20.002;2023-03-14T13:55:02;7.53;;;2.17;;
34920;SDS011;21128;50.016;20.002;2023-03-14T13:57:50;8.85;;;2.50;;
34920;SDS011;21128;50.016;20.002;2023-03-14T14:00:24;7.20;;;2.17;;
34920;SDS011;21128;50.016;20.002;2023-03-14T14:02:54;8.17;;;2.50;;
34920;SDS011;21128;50.016;20.002;2023-03-14T14:05:23;3.60;;;2.10;;
34920;SDS011;21128;50.016;20.002;2023-03-14T14:07:54;5.45;;;2.60;;
34920;SDS011;21128;50.016;20.002;2023-03-14T14:10:21;7.30;;;2.77;;
34920;SDS011;21128;50.016;20.002;2023-03-14T14:12:50;9.40;;;2.98;;
34920;SDS011;21128;50.016;20.002;2023-03-14T14:15:28;8.27;;;2.97;;
34920;SDS011;21128;50.016;20.002;2023-03-14T14:18:00;5.93;;;2.93;;
34920;SDS011;21128;50.016;20.002;2023-03-14T14:21:03;6.27;;;2.40;;
34920;SDS011;21128;50.016;20.002;2023-03-14T14:25:55;6.07;;;2.63;;
34920;SDS011;21128;50.016;20.002;2023-03-14T14:28:28;6.83;;;2.53;;
34920;SDS011;21128;50.016;20.002;2023-03-14T14:31:01;6.50;;;2.90;;
34920;SDS011;21128;50.016;20.002;2023-03-14T14:33:41;5.23;;;2.60;;
34920;SDS011;21128;50.016;20.002;2023-03-14T14:38:58;8.00;;;3.47;;
34920;SDS011;21128;50.016;20.002;2023-03-14T14:41:28;6.60;;;3.43;;
34920;SDS011;21128;50.016;20.002;2023-03-14T14:43:57;6.07;;;2.97;;
34920;SDS011;21128;50.016;20.002;2023-03-14T14:46:27;6.43;;;3.37;;
34920;SDS011;21128;50.016;20.002;2023-03-14T14:48:57;7.03;;;3.30;;
34920;SDS011;21128;50.016;20.002;2023-03-14T14:51:42;6.77;;;2.87;;
34920;SDS011;21128;50.016;20.002;2023-03-14T14:54:16;5.17;;;3.13;;
34920;SDS011;21128;50.016;20.002;2023-03-14T14:56:46;9.20;;;2.90;;
34920;SDS011;21128;50.016;20.002;2023-03-14T14:59:26;12.77;;;3.37;;
34920;SDS011;21128;50.016;20.002;2023-03-14T15:01:56;5.83;;;3.00;;
34920;SDS011;21128;50.016;20.002;2023-03-14T15:04:25;7.07;;;3.40;;
34920;SDS011;21128;50.016;20.002;2023-03-14T15:06:53;11.07;;;3.63;;
34920;SDS011;21128;50.016;20.002;2023-03-14T15:09:20;5.57;;;3.27;;
34920;SDS011;21128;50.016;20.002;2023-03-14T15:11:47;6.23;;;3.87;;
34920;SDS011;21128;50.016;20.002;2023-03-14T15:14:15;13.77;;;4.30;;
34920;SDS011;21128;50.016;20.002;2023-03-14T15:16:42;8.20;;;4.20;;
34920;SDS011;21128;50.016;20.002;2023-03-14T15:19:10;5.90;;;4.17;;
34920;SDS011;21128;50.016;20.002;2023-03-14T15:21:51;9.63;;;5.13;;
34920;SDS011;21128;50.016;20.002;2023-03-14T15:24:19;10.23;;;4.60;;
34920;SDS011;21128;50.016;20.002;2023-03-14T15:26:47;12.05;;;4.10;;
34920;SDS011;21128;50.016;20.002;2023-03-14T15:29:14;10.88;;;4.35;;
34920;SDS011;21128;50.016;20.002;2023-03-14T15:31:41;15.37;;;4.60;;
34920;SDS011;21128;50.016;20.002;2023-03-14T15:34:12;9.60;;;3.83;;
34920;SDS011;21128;50.016;20.002;2023-03-14T15:36:38;7.92;;;4.08;;
34920;SDS011;21128;50.016;20.002;2023-03-14T15:39:07;6.47;;;3.73;;
34920;SDS011;21128;50.016;20.002;2023-03-14T15:41:34;6.67;;;3.10;;
34920;SDS011;21128;50.016;20.002;2023-03-14T15:44:01;8.47;;;3.93;;
34920;SDS011;21128;50.016;20.002;2023-03-14T15:46:28;8.00;;;3.57;;
34920;SDS011;21128;50.016;20.002;2023-03-14T15:48:55;8.30;;;3.80;;
34920;SDS011;21128;50.016;20.002;2023-03-14T15:51:22;8.33;;;3.92;;
34920;SDS011;21128;50.016;20.002;2023-03-14T15:53:49;14.27;;;4.63;;
34920;SDS011;21128;50.016;20.002;2023-03-14T15:56:18;12.10;;;4.60;;
34920;SDS011;21128;50.016;20.002;2023-03-14T15:58:46;9.70;;;4.77;;
34920;SDS011;21128;50.016;20.002;2023-03-14T16:01:14;10.78;;;5.40;;
34920;SDS011;21128;50.016;20.002;2023-03-14T16:03:44;11.25;;;4.80;;
34920;SDS011;21128;50.016;20.002;2023-03-14T16:06:12;12.80;;;4.93;;
34920;SDS011;21128;50.016;20.002;2023-03-14T16:08:40;6.37;;;3.30;;
34920;SDS011;21128;50.016;20.002;2023-03-14T16:11:10;5.50;;;2.73;;
34920;SDS011;21128;50.016;20.002;2023-03-14T16:13:39;8.37;;;2.83;;
34920;SDS011;21128;50.016;20.002;2023-03-14T16:16:07;10.93;;;3.40;;